Terminal Aerodrome Forecast
Issued by NWS

Home | Current Version | Previous Version | Text Only | Print | Product List | Glossary On
Versions: 1 2 3 4 5 6 7 8 9 10 11 12 13 14 15 16 17
000
FTUS43 KIND 241122
TAFHUF
TAF
KHUF 241122Z 2412/2512 16006KT P6SM SKC
     FM241500 19009KT P6SM FEW250
     FM241800 20014G21KT P6SM FEW250
     FM250700 23008KT P6SM BKN200
     FM251000 27006KT P6SM SCT200
     FM251100 30006KT P6SM SCT150=

USA.gov is the U.S. government's official web portal to all federal, state and local government web resources and services.